| time (UTC) | temp F | wind direction | speed MPH | gust MPH | rain 1hr in | rain 24hr in | rain mn in | humidity % | barometer mb |
| 20260505190032 | 80 | 184 | 8.0 | 14.0 | 0.00 | 0.00 | 0.00 | 52 | 1017.6 |
| 20260505185425 | 80 | 172 | 8.0 | 15.0 | 0.00 | 0.00 | 0.00 | 51 | 1017.7 |
| 20260505184504 | 80 | 175 | 9.0 | 15.0 | 0.00 | 0.00 | 0.00 | 51 | 1017.6 |
| 20260505183625 | 80 | 164 | 8.0 | 17.0 | 0.00 | 0.00 | 0.00 | 52 | 1017.6 |
| 20260505182725 | 80 | 165 | 9.0 | 15.0 | 0.00 | 0.00 | 0.00 | 51 | 1017.6 |
| 20260505181804 | 80 | 176 | 9.0 | 17.0 | 0.00 | 0.00 | 0.00 | 51 | 1017.6 |
| 20260505180904 | 80 | 175 | 8.0 | 14.0 | 0.00 | 0.00 | 0.00 | 52 | 1017.4 |
| 20260505180004 | 80 | 180 | 8.0 | 14.0 | 0.00 | 0.00 | 0.00 | 52 | 1017.8 |
| 20260505175404 | 80 | 182 | 7.0 | 23.0 | 0.00 | 0.00 | 0.00 | 52 | 1018.0 |
| 20260505174525 | 80 | 172 | 7.0 | 23.0 | 0.00 | 0.00 | 0.00 | 52 | 1018.0 |
| 20260505173625 | 80 | 175 | 8.0 | 18.0 | 0.00 | 0.00 | 0.00 | 50 | 1018.1 |
| 20260505172704 | 80 | 164 | 8.0 | 14.0 | 0.00 | 0.00 | 0.00 | 52 | 1018.1 |
| 20260505171804 | 80 | 181 | 7.0 | 13.0 | 0.00 | 0.00 | 0.00 | 53 | 1018.2 |
| 20260505170904 | 79 | 175 | 5.0 | 12.0 | 0.00 | 0.00 | 0.00 | 53 | 1018.1 |
| 20260505170004 | 79 | 192 | 5.0 | 14.0 | 0.00 | 0.00 | 0.00 | 57 | 1018.3 |
| 20260505165425 | 78 | 163 | 6.0 | 14.0 | 0.00 | 0.00 | 0.00 | 57 | 1018.3 |
| 20260505164525 | 79 | 167 | 5.0 | 11.0 | 0.00 | 0.00 | 0.00 | 54 | 1018.3 |
| 20260505163625 | 78 | 166 | 6.0 | 12.0 | 0.00 | 0.00 | 0.00 | 56 | 1018.5 |
| 20260505162704 | 78 | 177 | 5.0 | 16.0 | 0.00 | 0.00 | 0.00 | 56 | 1018.7 |
| 20260505161804 | 79 | 167 | 8.0 | 12.0 | 0.00 | 0.00 | 0.00 | 56 | 1018.8 |
| 20260505160925 | 79 | 174 | 6.0 | 11.0 | 0.00 | 0.00 | 0.00 | 55 | 1018.9 |
| 20260505152704 | 77 | 181 | 5.0 | 11.0 | 0.00 | 0.00 | 0.00 | 59 | 1019.0 |
| 20260505151804 | 77 | 182 | 4.0 | 11.0 | 0.00 | 0.00 | 0.00 | 59 | 1018.9 |
| 20260505150904 | 77 | 183 | 3.0 | 14.0 | 0.00 | 0.00 | 0.00 | 58 | 1018.9 |
| 20260505124511 | 68 | 264 | 1.0 | 4.0 | 0.00 | 0.00 | 0.00 | 79 | 1018.8 |
| 20260505123604 | 68 | 255 | 0.0 | 2.0 | 0.00 | 0.00 | 0.00 | 81 | 1018.8 |
| 20260505122725 | 66 | 248 | 0.0 | 1.0 | 0.00 | 0.00 | 0.00 | 84 | 1018.8 |
| 20260505121804 | 64 | 275 | 0.0 | 3.0 | 0.00 | 0.00 | 0.00 | 87 | 1018.8 |
| 20260505120904 | 63 | 271 | 0.0 | 1.0 | 0.00 | 0.00 | 0.00 | 89 | 1018.8 |
| 20260505120005 | 62 | 304 | 0.0 | 2.0 | 0.00 | 0.00 | 0.00 | 89 | 1018.7 |
| 20260505115404 | 62 | 0 | 0.0 | 0.0 | 0.00 | 0.00 | 0.00 | 91 | 1018.6 |
| 20260505114504 | 60 | 0 | 0.0 | 0.0 | 0.00 | 0.00 | 0.00 | 92 | 1018.4 |
| 20260505113604 | 58 | 0 | 0.0 | 0.0 | 0.00 | 0.00 | 0.00 | 93 | 1018.4 |
| 20260505112704 | 57 | 0 | 0.0 | 0.0 | 0.00 | 0.00 | 0.00 | 93 | 1018.4 |
| 20260505111804 | 55 | 0 | 0.0 | 0.0 | 0.00 | 0.00 | 0.00 | 93 | 1018.1 |
| 20260505110904 | 53 | 0 | 0.0 | 0.0 | 0.00 | 0.00 | 0.00 | 93 | 1018.0 |
| 20260505101825 | 49 | 0 | 0.0 | 0.0 | 0.00 | 0.00 | 0.00 | 92 | 1017.5 |
| 20260505100925 | 49 | 0 | 0.0 | 0.0 | 0.00 | 0.00 | 0.00 | 92 | 1017.4 |
| 20260505100025 | 50 | 0 | 0.0 | 0.0 | 0.00 | 0.00 | 0.00 | 92 | 1017.5 |
| 20260505095404 | 50 | 0 | 0.0 | 0.0 | 0.00 | 0.00 | 0.00 | 92 | 1017.4 |
| 20260505094525 | 49 | 0 | 0.0 | 0.0 | 0.00 | 0.00 | 0.00 | 92 | 1017.4 |
| 20260505093625 | 49 | 0 | 0.0 | 0.0 | 0.00 | 0.00 | 0.00 | 92 | 1017.2 |
| 20260505092704 | 50 | 0 | 0.0 | 0.0 | 0.00 | 0.00 | 0.00 | 92 | 1017.2 |
| 20260505091804 | 50 | 0 | 0.0 | 0.0 | 0.00 | 0.00 | 0.00 | 92 | 1017.1 |
| 20260505090904 | 50 | 0 | 0.0 | 0.0 | 0.00 | 0.00 | 0.00 | 92 | 1017.2 |
| 20260505090004 | 50 | 0 | 0.0 | 0.0 | 0.00 | 0.00 | 0.00 | 92 | 1017.1 |
| 20260505085404 | 50 | 0 | 0.0 | 0.0 | 0.00 | 0.00 | 0.00 | 92 | 1017.1 |
| 20260505084504 | 50 | 0 | 0.0 | 0.0 | 0.00 | 0.00 | 0.00 | 91 | 1016.9 |
| 20260505083604 | 49 | 0 | 0.0 | 0.0 | 0.00 | 0.00 | 0.00 | 91 | 1017.0 |
| 20260505082704 | 50 | 0 | 0.0 | 0.0 | 0.00 | 0.00 | 0.00 | 91 | 1016.9 |
| 20260505081825 | 50 | 0 | 0.0 | 0.0 | 0.00 | 0.00 | 0.00 | 91 | 1016.9 |
| 20260505080904 | 50 | 0 | 0.0 | 0.0 | 0.00 | 0.00 | 0.00 | 91 | 1016.8 |
| 20260505080004 | 50 | 0 | 0.0 | 0.0 | 0.00 | 0.00 | 0.00 | 91 | 1017.0 |
| 20260505075404 | 50 | 0 | 0.0 | 0.0 | 0.00 | 0.00 | 0.00 | 91 | 1016.9 |
| 20260505074525 | 51 | 0 | 0.0 | 0.0 | 0.00 | 0.00 | 0.00 | 91 | 1016.9 |
| 20260505073604 | 50 | 0 | 0.0 | 0.0 | 0.00 | 0.00 | 0.00 | 90 | 1016.9 |
| 20260505072704 | 51 | 0 | 0.0 | 0.0 | 0.00 | 0.00 | 0.00 | 90 | 1017.0 |
| 20260505071804 | 51 | 0 | 0.0 | 0.0 | 0.00 | 0.00 | 0.00 | 90 | 1016.8 |
| 20260505070925 | 51 | 0 | 0.0 | 0.0 | 0.00 | 0.00 | 0.00 | 90 | 1016.9 |
| 20260505070025 | 51 | 0 | 0.0 | 0.0 | 0.00 | 0.00 | 0.00 | 90 | 1016.9 |
| 20260505065404 | 51 | 0 | 0.0 | 0.0 | 0.00 | 0.00 | 0.00 | 90 | 1016.9 |
| 20260505064525 | 51 | 0 | 0.0 | 0.0 | 0.00 | 0.00 | 0.00 | 89 | 1017.0 |
| 20260505063604 | 52 | 0 | 0.0 | 0.0 | 0.00 | 0.00 | 0.00 | 89 | 1017.0 |
| 20260505062725 | 52 | 0 | 0.0 | 0.0 | 0.00 | 0.00 | 0.00 | 90 | 1017.2 |
| 20260505061825 | 52 | 0 | 0.0 | 0.0 | 0.00 | 0.00 | 0.00 | 89 | 1017.1 |
| 20260505060904 | 52 | 0 | 0.0 | 0.0 | 0.00 | 0.00 | 0.00 | 89 | 1017.4 |
| 20260505060004 | 52 | 0 | 0.0 | 0.0 | 0.00 | 0.00 | 0.00 | 89 | 1017.3 |
| 20260505055404 | 52 | 0 | 0.0 | 0.0 | 0.00 | 0.00 | 0.00 | 89 | 1017.5 |
| 20260505054504 | 53 | 0 | 0.0 | 0.0 | 0.00 | 0.00 | 0.00 | 88 | 1017.4 |
| 20260505053604 | 53 | 0 | 0.0 | 0.0 | 0.00 | 0.00 | 0.00 | 88 | 1017.7 |
| 20260505052704 | 53 | 0 | 0.0 | 0.0 | 0.00 | 0.00 | 0.00 | 88 | 1017.7 |
| 20260505051804 | 53 | 0 | 0.0 | 0.0 | 0.00 | 0.00 | 0.00 | 88 | 1017.8 |
| 20260505050904 | 54 | 0 | 0.0 | 0.0 | 0.00 | 0.00 | 0.00 | 89 | 1017.7 |
| 20260505040904 | 55 | 0 | 0.0 | 0.0 | 0.00 | 0.00 | 0.00 | 86 | 1017.7 |
| 20260505040005 | 55 | 0 | 0.0 | 0.0 | 0.00 | 0.00 | 0.00 | 85 | 1017.7 |
| 20260505035404 | 55 | 0 | 0.0 | 0.0 | 0.00 | 0.00 | 0.00 | 85 | 1017.8 |
| 20260505034504 | 56 | 0 | 0.0 | 0.0 | 0.00 | 0.00 | 0.00 | 85 | 1017.7 |
| 20260505033604 | 56 | 0 | 0.0 | 0.0 | 0.00 | 0.00 | 0.00 | 84 | 1017.9 |
| 20260505032732 | 56 | 0 | 0.0 | 0.0 | 0.00 | 0.00 | 0.00 | 84 | 1017.7 |
| 20260505031804 | 57 | 0 | 0.0 | 0.0 | 0.00 | 0.00 | 0.00 | 83 | 1017.8 |
| 20260505030904 | 57 | 0 | 0.0 | 0.0 | 0.00 | 0.00 | 0.00 | 83 | 1017.8 |
| 20260505030004 | 57 | 0 | 0.0 | 0.0 | 0.00 | 0.00 | 0.00 | 84 | 1017.9 |
| 20260505025404 | 57 | 0 | 0.0 | 0.0 | 0.00 | 0.00 | 0.00 | 82 | 1017.8 |
| 20260505024504 | 58 | 0 | 0.0 | 0.0 | 0.00 | 0.00 | 0.00 | 80 | 1017.9 |
| 20260505023625 | 58 | 0 | 0.0 | 0.0 | 0.00 | 0.00 | 0.00 | 80 | 1017.8 |
| 20260505022704 | 59 | 0 | 0.0 | 0.0 | 0.00 | 0.00 | 0.00 | 78 | 1018.0 |
| 20260505021825 | 60 | 0 | 0.0 | 0.0 | 0.00 | 0.00 | 0.00 | 77 | 1017.8 |
| 20260505020904 | 61 | 0 | 0.0 | 0.0 | 0.00 | 0.00 | 0.00 | 76 | 1017.8 |
| 20260505020004 | 61 | 0 | 0.0 | 0.0 | 0.00 | 0.00 | 0.00 | 75 | 1017.8 |
| 20260505015404 | 62 | 0 | 0.0 | 0.0 | 0.00 | 0.00 | 0.00 | 74 | 1017.8 |
| 20260505014504 | 62 | 186 | 0.0 | 3.0 | 0.00 | 0.00 | 0.00 | 73 | 1017.8 |
| 20260505013640 | 63 | 187 | 0.0 | 4.0 | 0.00 | 0.00 | 0.00 | 72 | 1017.7 |
| 20260505012703 | 63 | 170 | 0.0 | 3.0 | 0.00 | 0.00 | 0.00 | 71 | 1017.5 |
| 20260505011811 | 64 | 196 | 1.0 | 4.0 | 0.00 | 0.00 | 0.00 | 70 | 1017.3 |
| 20260505010925 | 64 | 208 | 1.0 | 4.0 | 0.00 | 0.00 | 0.00 | 70 | 1017.2 |
| 20260505010004 | 64 | 194 | 2.0 | 4.0 | 0.00 | 0.00 | 0.00 | 68 | 1017.1 |
| 20260505005425 | 65 | 187 | 2.0 | 5.0 | 0.00 | 0.00 | 0.00 | 68 | 1017.0 |
| 20260505004503 | 65 | 174 | 3.0 | 6.0 | 0.00 | 0.00 | 0.00 | 66 | 1016.9 |
| 20260505003604 | 66 | 183 | 3.0 | 6.0 | 0.00 | 0.00 | 0.00 | 65 | 1016.7 |
| 20260505002725 | 66 | 182 | 4.0 | 7.0 | 0.00 | 0.00 | 0.00 | 64 | 1016.6 |
| 20260505001803 | 67 | 191 | 2.0 | 8.0 | 0.00 | 0.00 | 0.00 | 64 | 1016.6 |
| 20260505000904 | 67 | 189 | 4.0 | 7.0 | 0.00 | 0.00 | 0.00 | 63 | 1016.4 |
| 20260505000004 | 68 | 186 | 4.0 | 8.0 | 0.00 | 0.00 | 0.00 | 62 | 1016.5 |
| 20260504235404 | 68 | 185 | 5.0 | 9.0 | 0.00 | 0.00 | 0.00 | 62 | 1016.6 |
| 20260504234504 | 69 | 184 | 6.0 | 12.0 | 0.00 | 0.00 | 0.00 | 60 | 1016.4 |
| 20260504233604 | 69 | 187 | 6.0 | 15.0 | 0.00 | 0.00 | 0.00 | 59 | 1016.4 |
| 20260504232704 | 70 | 182 | 7.0 | 15.0 | 0.00 | 0.00 | 0.00 | 58 | 1016.3 |
| 20260504231803 | 70 | 187 | 6.0 | 13.0 | 0.00 | 0.00 | 0.00 | 57 | 1016.3 |
| 20260504230903 | 70 | 183 | 6.0 | 15.0 | 0.00 | 0.00 | 0.00 | 56 | 1016.2 |
| 20260504230004 | 71 | 183 | 7.0 | 16.0 | 0.00 | 0.00 | 0.00 | 55 | 1016.3 |
| 20260504225425 | 71 | 183 | 7.0 | 16.0 | 0.00 | 0.00 | 0.00 | 55 | 1016.3 |
| 20260504224504 | 72 | 187 | 8.0 | 16.0 | 0.00 | 0.00 | 0.00 | 54 | 1016.3 |
| 20260504223603 | 73 | 189 | 7.0 | 14.0 | 0.00 | 0.00 | 0.00 | 54 | 1016.3 |
| 20260504222704 | 73 | 185 | 9.0 | 16.0 | 0.00 | 0.00 | 0.00 | 54 | 1016.3 |
| 20260504221804 | 73 | 182 | 8.0 | 16.0 | 0.00 | 0.00 | 0.00 | 55 | 1016.2 |
| 20260504220904 | 74 | 181 | 8.0 | 18.0 | 0.00 | 0.00 | 0.00 | 54 | 1016.2 |
| 20260504220004 | 74 | 183 | 10.0 | 18.0 | 0.00 | 0.00 | 0.00 | 54 | 1016.2 |
| 20260504215424 | 74 | 179 | 11.0 | 19.0 | 0.00 | 0.00 | 0.00 | 53 | 1016.1 |
| 20260504214503 | 75 | 177 | 10.0 | 16.0 | 0.00 | 0.00 | 0.00 | 52 | 1016.0 |
| 20260504213603 | 75 | 183 | 9.0 | 16.0 | 0.00 | 0.00 | 0.00 | 53 | 1015.9 |
| 20260504212725 | 76 | 185 | 9.0 | 18.0 | 0.00 | 0.00 | 0.00 | 52 | 1016.0 |
| 20260504211803 | 76 | 173 | 11.0 | 18.0 | 0.00 | 0.00 | 0.00 | 53 | 1016.0 |
| 20260504210904 | 76 | 177 | 12.0 | 18.0 | 0.00 | 0.00 | 0.00 | 54 | 1016.1 |
| 20260504210004 | 77 | 174 | 11.0 | 17.0 | 0.00 | 0.00 | 0.00 | 52 | 1016.0 |
| 20260504205403 | 77 | 177 | 10.0 | 17.0 | 0.00 | 0.00 | 0.00 | 53 | 1016.1 |
| 20260504204524 | 77 | 173 | 10.0 | 18.0 | 0.00 | 0.00 | 0.00 | 52 | 1016.2 |
| 20260504203603 | 78 | 174 | 11.0 | 18.0 | 0.00 | 0.00 | 0.00 | 52 | 1016.2 |
| 20260504202703 | 79 | 180 | 9.0 | 14.0 | 0.00 | 0.00 | 0.00 | 47 | 1016.2 |
| 20260504201803 | 79 | 174 | 9.0 | 16.0 | 0.00 | 0.00 | 0.00 | 48 | 1016.2 |
| 20260504200904 | 80 | 170 | 8.0 | 14.0 | 0.00 | 0.00 | 0.00 | 47 | 1016.1 |
| 20260504200024 | 81 | 179 | 5.0 | 13.0 | 0.00 | 0.00 | 0.00 | 45 | 1016.1 |
| 20260504195404 | 81 | 183 | 5.0 | 11.0 | 0.00 | 0.00 | 0.00 | 41 | 1016.1 |
| 20260504194503 | 81 | 182 | 3.0 | 8.0 | 0.00 | 0.00 | 0.00 | 40 | 1016.1 |
| 20260504193603 | 80 | 185 | 4.0 | 10.0 | 0.00 | 0.00 | 0.00 | 41 | 1016.5 |
| 20260504192725 | 80 | 204 | 4.0 | 15.0 | 0.00 | 0.00 | 0.00 | 39 | 1016.6 |
| 20260504191803 | 81 | 166 | 2.0 | 8.0 | 0.00 | 0.00 | 0.00 | 41 | 1016.7 |
| 20260504190903 | 80 | 170 | 3.0 | 7.0 | 0.00 | 0.00 | 0.00 | 42 | 1016.7 |